Andover, SD

6:48 PM CST on February 22, 2018 (GMT -0600)
Bristol | | Change Station
Active Advisory: Winter Weather Advisory

Elev 1309 ft 45.35 °N, 97.75 °W | Updated 7 seconds ago

Snow
Snow
21.2 °F
Feels Like 11 °F
N
9.0
Wind Variable Wind from East

Today
High -- | Low -- °F
--% Chance of Precip.
Yesterday
High -- | Low -- °F
Precip. -- in
Pressure 30.23 in
Visibility 1.0 miles
Clouds
Windchill 11 °F
Dew Point 19 °F
Humidity 91%
Rainfall 0.00 in
Snow Depth Not available.
7:21 AM 6:09 PM
Waxing Crescent, 47% visible
SPECI KABR 230029Z AUTO 11004KT 1SM -SN BR VV011 M04/M05 A3023 RMK AO2 P0003 T10391050
Pressure 30.23 in
Visibility 1.0 miles
Clouds
Windchill 11 °F
Dew Point 19 °F
Humidity 91%
Rainfall 0.00 in
Snow Depth Not available.
7:21 AM 6:09 PM
Waxing Crescent, 47% visible
SPECI KABR 230029Z AUTO 11004KT 1SM -SN BR VV011 M04/M05 A3023 RMK AO2 P0003 T10391050

Get Your Daily Forecast Email!

Thanks for signing up!

Be on the lookout for a verification email in your inbox.

You'll start receiving severe weather alerts in your inbox..

×

10-Day Weather Forecast

Almanac

Astronomy

Feb. 22, 2018 Rise Set
Actual Time
Civil Twilight
Nautical Twilight
Astronomical Twilight
Moon
Length of Visible Light
Length of Day
Tomorrow will be .
, % of the Moon is Illuminated

Today's Extremes

State Highs State Lows

Community

WunderPhotos

Category 6

Welcome to Category 6. This is the collective home for Weather Underground's featured writeups by Dr. Jeff Masters (right), Bob Henson (left), Chris Burt, and other regular contributors.

Nearby

Air Quality

  Air Quality AQ Index Pollutant
Not available.

Snow Depth

Station Depth Elevation

Earthquake Activity

City Distance Mag. Time & Date
Minimum magnitude displayed is 2.5.

Coastal Water Temperatures

Place Temperature

Stations

Nearby Weather Stations

Station Location Temp. Windchill Dew Point Humidity Wind Precip. Elev Updated Type
                   

Watches & Warnings

Winter Weather Advisory
Issued: 2:17 PM CST Feb. 22, 2018 – National Weather Service

... Winter Weather Advisory now in effect until 3 am CST Friday...

* what... snow expected. Total snow accumulations of 2 to 5
inches are expected.

* Where... portions of north central and northeast South Dakota
and west central Minnesota.

* When... until 3 am CST Friday.

* Additional details... plan on slippery Road conditions. Be
prepared for reduced visibility at times.

Precautionary/preparedness actions...

A Winter Weather Advisory for snow means periods of snow will
cause primarily travel difficulties. Be prepared for snow covered
roads and limited visibility, and use caution while driving. In
Minnesota, the latest Road conditions can be obtained at
511mn.Org, or by calling 5 1 1. In South Dakota, the latest Road
conditions can be obtained by calling 5 1 1.